Time;durP1;ratioP1;P1;durP2;ratioP2;P2;SDS_P1;SDS_P2;PMS_P1;PMS_P2;Temp;Humidity;BMP_temperature;BMP_pressure;BME280_temperature;BME280_humidity;BME280_pressure;Samples;Min_cycle;Max_cycle;Signal;HPM_P1;HPM_P2
2021/04/06 00:00:09;;;;;;;13.65;5.85;;;-0.10;99.90;;;;;;5060678;28;20045;-73
2021/04/06 00:02:37;;;;;;;7.72;3.35;;;-0.20;99.90;;;;;;5056567;28;20037;-74
2021/04/06 00:05:07;;;;;;;10.95;3.85;;;-0.20;99.90;;;;;;5055785;28;20075;-74
2021/04/06 00:07:35;;;;;;;8.02;3.65;;;-0.10;99.90;;;;;;5055353;28;20017;-74
2021/04/06 00:10:06;;;;;;;13.18;4.55;;;-0.20;99.90;;;;;;5055405;28;20037;-74
2021/04/06 00:12:33;;;;;;;16.05;6.68;;;-0.20;99.90;;;;;;5055362;28;20060;-74
2021/04/06 00:15:01;;;;;;;12.55;4.80;;;-0.10;99.90;;;;;;5054963;28;20059;-74
2021/04/06 00:17:28;;;;;;;15.48;4.63;;;-0.20;99.90;;;;;;5055627;28;20021;-74
2021/04/06 00:19:56;;;;;;;10.93;4.57;;;-0.20;99.90;;;;;;5055747;28;20120;-73
2021/04/06 00:22:26;;;;;;;17.80;6.05;;;-0.20;99.90;;;;;;5056856;28;20084;-74
2021/04/06 00:24:53;;;;;;;12.57;6.10;;;-0.20;99.90;;;;;;5071843;28;20029;-75
2021/04/06 00:27:33;;;;;;;19.23;5.97;;;-0.20;99.90;;;;;;5055415;28;20087;-74
2021/04/06 00:30:06;;;;;;;13.60;5.50;;;-0.20;99.90;;;;;;5057273;28;20542;-74
2021/04/06 00:32:32;;;;;;;13.38;4.57;;;-0.30;99.90;;;;;;5057031;28;20044;-74
2021/04/06 00:35:02;;;;;;;12.65;5.43;;;-0.30;99.90;;;;;;5071599;28;20021;-74
2021/04/06 00:37:28;;;;;;;11.43;4.90;;;-0.40;99.90;;;;;;5054673;28;20032;-75
2021/04/06 00:40:14;;;;;;;13.05;5.20;;;-0.50;99.90;;;;;;5054308;28;20529;-73
2021/04/06 00:42:41;;;;;;;8.80;4.57;;;-0.50;99.90;;;;;;5058149;28;20395;-75
2021/04/06 00:45:17;;;;;;;9.60;4.82;;;-0.50;99.90;;;;;;5063473;28;20021;-74
2021/04/06 00:47:43;;;;;;;12.75;5.70;;;-0.50;99.90;;;;;;5062153;28;20021;-73
2021/04/06 00:50:15;;;;;;;12.45;5.10;;;-0.60;99.90;;;;;;5063003;28;20021;-75
2021/04/06 00:52:45;;;;;;;13.07;4.78;;;-0.60;99.90;;;;;;5061328;28;20025;-73
2021/04/06 00:55:19;;;;;;;12.13;4.95;;;-0.70;99.90;;;;;;5054815;28;20389;-74
2021/04/06 00:57:46;;;;;;;10.25;4.40;;;-0.70;99.90;;;;;;5053988;28;20031;-75
2021/04/06 01:00:21;;;;;;;17.90;4.63;;;-0.70;99.90;;;;;;5053596;28;20028;-76
2021/04/06 01:02:59;;;;;;;15.32;4.70;;;-0.80;99.90;;;;;;5052765;28;20032;-74
2021/04/06 01:05:26;;;;;;;14.55;4.72;;;-0.90;99.90;;;;;;5053739;28;20107;-74
2021/04/06 01:07:55;;;;;;;13.85;4.45;;;-1.00;99.90;;;;;;5069419;28;20036;-75
2021/04/06 01:10:23;;;;;;;13.68;4.60;;;-1.00;99.90;;;;;;5053759;28;20605;-74
2021/04/06 01:12:49;;;;;;;9.25;4.78;;;-0.90;99.90;;;;;;5054161;28;20490;-74
2021/04/06 01:15:18;;;;;;;9.80;4.32;;;-0.90;99.90;;;;;;5054132;28;20033;-75
2021/04/06 01:17:45;;;;;;;7.93;4.07;;;-1.00;99.90;;;;;;5068642;28;20028;-75
2021/04/06 01:20:14;;;;;;;12.68;5.22;;;-1.00;99.90;;;;;;5053650;28;20442;-75
2021/04/06 01:22:41;;;;;;;9.77;4.53;;;-1.10;99.90;;;;;;5052967;28;20525;-74
2021/04/06 01:25:16;;;;;;;13.27;4.60;;;-1.00;99.90;;;;;;5053274;28;20032;-73
2021/04/06 01:27:42;;;;;;;10.77;4.53;;;-1.10;99.90;;;;;;5053383;28;20021;-74
2021/04/06 01:30:10;;;;;;;12.13;4.45;;;-1.10;99.90;;;;;;5053525;28;20044;-73
2021/04/06 01:32:36;;;;;;;12.30;4.65;;;-1.20;99.90;;;;;;5051802;28;20021;-75
2021/04/06 01:35:05;;;;;;;12.80;4.28;;;-1.10;99.90;;;;;;5052666;28;20054;-73
2021/04/06 01:37:30;;;;;;;5.15;3.63;;;-1.10;99.90;;;;;;5053213;28;20103;-74
2021/04/06 01:39:57;;;;;;;6.65;4.10;;;-1.10;99.90;;;;;;5045886;28;20152;-74
2021/04/06 01:42:26;;;;;;;10.10;3.60;;;-1.00;99.90;;;;;;5047222;28;20029;-73
2021/04/06 01:44:54;;;;;;;12.15;3.63;;;-1.10;99.90;;;;;;5044422;28;20063;-74
2021/04/06 01:47:22;;;;;;;9.07;3.97;;;-1.10;99.90;;;;;;5034435;28;20559;-74
2021/04/06 01:49:48;;;;;;;9.65;3.70;;;-1.10;99.90;;;;;;5033177;28;20025;-75
2021/04/06 01:52:14;;;;;;;15.55;3.95;;;-1.10;99.90;;;;;;5032867;28;20037;-74
2021/04/06 01:54:41;;;;;;;13.13;3.53;;;-1.10;99.90;;;;;;5032944;28;20104;-74
2021/04/06 01:57:14;;;;;;;10.15;4.40;;;-1.10;99.90;;;;;;5032917;28;20418;-74
2021/04/06 01:59:51;;;;;;;15.65;4.38;;;-1.00;99.90;;;;;;5032951;28;20029;-75
2021/04/06 02:02:16;;;;;;;9.82;4.57;;;-1.20;99.90;;;;;;5032272;28;20025;-73
2021/04/06 02:04:44;;;;;;;8.98;3.90;;;-1.20;99.90;;;;;;5031346;28;20134;-74
2021/04/06 02:07:13;;;;;;;11.55;4.38;;;-1.30;99.90;;;;;;5032281;28;20025;-74
2021/04/06 02:09:40;;;;;;;10.65;4.22;;;-1.30;99.90;;;;;;5036312;28;20021;-74
2021/04/06 02:12:06;;;;;;;13.52;4.78;;;-1.30;99.90;;;;;;5050967;28;20151;-74
2021/04/06 02:14:32;;;;;;;9.75;4.53;;;-1.30;99.90;;;;;;5051677;28;20103;-74
2021/04/06 02:17:05;;;;;;;9.00;4.03;;;-1.30;99.90;;;;;;5051685;28;20103;-74
2021/04/06 02:19:49;;;;;;;10.75;4.10;;;-1.30;99.90;;;;;;5052018;28;20029;-73
2021/04/06 02:22:17;;;;;;;8.85;4.18;;;-1.30;99.90;;;;;;5051885;28;20029;-72
2021/04/06 02:24:45;;;;;;;14.80;4.47;;;-1.40;99.90;;;;;;5051142;28;20024;-75
2021/04/06 02:27:30;;;;;;;11.18;5.47;;;-1.30;99.90;;;;;;5051901;28;20021;-74
2021/04/06 02:29:58;;;;;;;12.48;4.43;;;-1.30;99.90;;;;;;5051639;28;20025;-73
2021/04/06 02:32:29;;;;;;;7.50;4.43;;;-1.40;99.90;;;;;;5050069;28;20021;-73
2021/04/06 02:34:58;;;;;;;7.95;4.47;;;-1.40;99.90;;;;;;5051037;28;20036;-75
2021/04/06 02:37:30;;;;;;;8.13;4.22;;;-1.50;99.90;;;;;;5051780;28;20452;-74
2021/04/06 02:39:58;;;;;;;11.95;4.10;;;-1.50;99.90;;;;;;5051796;28;20021;-75
2021/04/06 02:42:33;;;;;;;9.50;3.88;;;-1.50;99.90;;;;;;5053953;28;20056;-72
2021/04/06 02:45:09;;;;;;;13.93;4.50;;;-1.50;99.90;;;;;;5051626;28;20468;-75
2021/04/06 02:47:41;;;;;;;7.53;3.70;;;-1.50;99.90;;;;;;5051289;28;20029;-73
2021/04/06 02:50:13;;;;;;;7.90;4.25;;;-1.40;99.90;;;;;;5050269;28;20032;-73
2021/04/06 02:52:39;;;;;;;11.43;5.28;;;-1.40;99.90;;;;;;5049695;28;20131;-73
2021/04/06 02:55:07;;;;;;;12.05;4.63;;;-1.40;99.90;;;;;;5051326;28;20051;-74
2021/04/06 02:57:39;;;;;;;9.90;4.43;;;-1.40;99.90;;;;;;5051302;28;20577;-74
2021/04/06 03:00:05;;;;;;;15.77;4.90;;;-1.40;99.90;;;;;;5051470;28;20035;-73
2021/04/06 03:02:38;;;;;;;10.95;4.65;;;-1.30;99.90;;;;;;5049636;28;20108;-74
2021/04/06 03:05:04;;;;;;;14.13;4.82;;;-1.40;99.90;;;;;;5051215;28;20021;-74
2021/04/06 03:07:30;;;;;;;11.20;4.80;;;-1.50;99.90;;;;;;5051316;28;20479;-74
2021/04/06 03:10:00;;;;;;;6.35;4.40;;;-1.50;99.90;;;;;;5051126;28;20078;-73
2021/04/06 03:12:29;;;;;;;11.32;5.05;;;-1.50;99.90;;;;;;5051503;28;20025;-74
2021/04/06 03:14:56;;;;;;;11.48;4.90;;;-1.50;99.90;;;;;;5050760;28;20032;-75
2021/04/06 03:17:22;;;;;;;12.68;4.78;;;-1.50;99.90;;;;;;5053338;28;20415;-73
2021/04/06 03:19:55;;;;;;;10.65;4.55;;;-1.50;99.90;;;;;;5055365;28;20028;-73
2021/04/06 03:22:21;;;;;;;9.25;3.95;;;-1.60;99.90;;;;;;5054615;28;20573;-74
2021/04/06 03:24:48;;;;;;;11.98;5.07;;;-1.60;99.90;;;;;;5048817;28;20134;-75
2021/04/06 03:27:14;;;;;;;8.10;4.90;;;-1.50;99.90;;;;;;5056230;28;20108;-73
2021/04/06 03:29:41;;;;;;;11.90;4.60;;;-1.50;99.90;;;;;;5062762;28;20494;-72
2021/04/06 03:32:08;;;;;;;16.13;5.60;;;-1.60;99.90;;;;;;5075317;28;20371;-73
2021/04/06 03:34:37;;;;;;;14.48;6.68;;;-1.50;99.90;;;;;;5074330;28;20041;-74
2021/04/06 03:37:08;;;;;;;8.43;4.65;;;-1.60;99.90;;;;;;5074259;28;20037;-72
2021/04/06 03:39:35;;;;;;;9.55;4.57;;;-1.60;99.90;;;;;;5070749;28;20036;-75
2021/04/06 03:42:02;;;;;;;8.45;4.82;;;-1.70;99.90;;;;;;5063066;28;20021;-73
2021/04/06 03:44:29;;;;;;;8.05;4.53;;;-1.70;99.90;;;;;;5074375;28;20044;-74
2021/04/06 03:46:57;;;;;;;12.73;4.47;;;-1.70;99.90;;;;;;5074489;28;20505;-73
2021/04/06 03:49:27;;;;;;;13.73;4.80;;;-1.70;99.90;;;;;;5075671;28;20024;-72
2021/04/06 03:51:57;;;;;;;9.38;4.30;;;-1.70;99.90;;;;;;5075191;28;20024;-73
2021/04/06 03:54:38;;;;;;;8.48;4.05;;;-1.70;99.90;;;;;;5068883;28;20029;-73
2021/04/06 03:57:22;;;;;;;13.05;3.72;;;-1.70;99.90;;;;;;5055007;28;20025;-73
2021/04/06 03:59:48;;;;;;;8.07;3.90;;;-1.70;99.90;;;;;;5055953;28;20666;-73
2021/04/06 04:02:14;;;;;;;14.05;4.60;;;-1.80;99.90;;;;;;5055836;28;20060;-73
2021/04/06 04:04:39;;;;;;;13.32;4.32;;;-1.70;99.90;;;;;;5055673;28;20115;-72
2021/04/06 04:07:07;;;;;;;6.70;3.58;;;-1.70;99.90;;;;;;5057279;28;20039;-72
2021/04/06 04:09:33;;;;;;;8.40;3.80;;;-1.70;99.90;;;;;;5057057;28;20075;-74
2021/04/06 04:11:59;;;;;;;10.48;3.63;;;-1.70;99.90;;;;;;5055971;28;20059;-73
2021/04/06 04:14:25;;;;;;;9.98;5.10;;;-1.70;99.90;;;;;;5055286;28;20021;-72
2021/04/06 04:16:52;;;;;;;7.68;4.13;;;-1.60;99.90;;;;;;5054448;28;20448;-74
2021/04/06 04:19:18;;;;;;;8.02;3.33;;;-1.60;99.90;;;;;;5069591;28;20444;-73
2021/04/06 04:21:43;;;;;;;7.10;3.70;;;-1.50;99.90;;;;;;5076172;28;20036;-76
2021/04/06 04:24:09;;;;;;;9.18;3.85;;;-1.50;99.90;;;;;;5075876;28;20025;-73
2021/04/06 04:26:35;;;;;;;13.40;4.75;;;-1.40;99.90;;;;;;5073621;28;20062;-74
2021/04/06 04:29:01;;;;;;;13.68;4.30;;;-1.40;99.90;;;;;;5072401;28;20032;-72
2021/04/06 04:31:27;;;;;;;8.93;3.80;;;-1.30;99.90;;;;;;5073147;28;20020;-73
2021/04/06 04:33:52;;;;;;;4.45;3.85;;;-1.40;99.90;;;;;;5074422;28;20017;-73
2021/04/06 04:36:18;;;;;;;7.93;3.65;;;-1.30;99.90;;;;;;5072302;28;20027;-74
2021/04/06 04:38:44;;;;;;;6.70;3.70;;;-1.20;99.90;;;;;;5074913;28;20114;-75
2021/04/06 04:41:09;;;;;;;7.97;3.92;;;-1.20;99.90;;;;;;5056298;28;20036;-77
2021/04/06 04:43:35;;;;;;;9.70;4.05;;;-1.20;99.90;;;;;;5054147;28;20151;-73
2021/04/06 04:46:01;;;;;;;9.25;4.35;;;-1.10;99.90;;;;;;5052515;28;20020;-72
2021/04/06 04:48:26;;;;;;;9.52;3.88;;;-1.10;99.90;;;;;;5069773;28;20025;-73
2021/04/06 04:50:52;;;;;;;6.85;3.85;;;-0.90;99.90;;;;;;5054486;28;20521;-73
2021/04/06 04:53:17;;;;;;;10.57;3.70;;;-1.00;99.90;;;;;;5056334;28;20029;-74
2021/04/06 04:55:43;;;;;;;8.90;4.30;;;-0.90;99.90;;;;;;5089399;28;20053;-74
2021/04/06 04:58:10;;;;;;;14.88;4.50;;;-0.90;99.90;;;;;;5064149;28;20227;-72
2021/04/06 05:00:36;;;;;;;7.60;3.63;;;-0.90;99.90;;;;;;5060554;28;20021;-72
2021/04/06 05:03:01;;;;;;;9.50;4.25;;;-0.90;99.90;;;;;;5060633;28;20029;-69
2021/04/06 05:05:27;;;;;;;7.85;4.45;;;-0.90;99.90;;;;;;5059206;28;20048;-71
2021/04/06 05:07:53;;;;;;;10.65;4.70;;;-0.90;99.90;;;;;;5055517;28;20066;-73
2021/04/06 05:10:19;;;;;;;8.43;3.42;;;-0.80;99.90;;;;;;5054829;28;20418;-70
2021/04/06 05:12:48;;;;;;;9.70;4.05;;;-0.80;99.90;;;;;;5056237;28;20391;-71
2021/04/06 05:15:15;;;;;;;7.07;3.60;;;-0.70;99.90;;;;;;5055366;28;20082;-71
2021/04/06 05:17:41;;;;;;;7.80;3.45;;;-0.60;99.90;;;;;;5060297;28;20036;-72
2021/04/06 05:20:08;;;;;;;14.77;4.13;;;-0.70;99.90;;;;;;5064893;28;20025;-74
2021/04/06 05:22:34;;;;;;;12.27;3.75;;;-0.60;99.90;;;;;;5055886;28;20506;-70
2021/04/06 05:25:00;;;;;;;7.95;3.58;;;-0.50;99.90;;;;;;5051921;28;20025;-69
2021/04/06 05:27:25;;;;;;;10.48;3.70;;;-0.50;99.90;;;;;;5053841;28;20467;-71
2021/04/06 05:29:51;;;;;;;13.52;3.75;;;-0.50;99.90;;;;;;5047714;28;20043;-71
2021/04/06 05:32:17;;;;;;;8.57;3.35;;;-0.30;99.90;;;;;;5052280;28;20028;-73
2021/04/06 05:34:43;;;;;;;6.70;3.38;;;-0.30;99.90;;;;;;5042140;28;20024;-72
2021/04/06 05:37:09;;;;;;;4.72;2.92;;;-0.30;99.90;;;;;;5041360;28;20546;-73
2021/04/06 05:39:34;;;;;;;9.65;3.75;;;-0.30;99.90;;;;;;5042308;28;20044;-76
2021/04/06 05:42:00;;;;;;;6.43;3.13;;;-0.20;99.90;;;;;;5041913;28;20032;-73
2021/04/06 05:44:27;;;;;;;4.43;3.17;;;-0.40;99.90;;;;;;5040232;28;20028;-75
2021/04/06 05:46:57;;;;;;;5.85;3.28;;;-0.40;99.90;;;;;;5041201;28;20442;-74
2021/04/06 05:49:30;;;;;;;10.43;3.17;;;-0.30;99.90;;;;;;5042179;28;20021;-75
2021/04/06 05:51:56;;;;;;;9.57;3.10;;;-0.30;99.90;;;;;;5039277;28;20036;-74
2021/04/06 05:54:23;;;;;;;8.88;3.20;;;-0.20;99.90;;;;;;5041259;28;20390;-75
2021/04/06 05:56:49;;;;;;;10.27;3.28;;;-0.40;99.90;;;;;;5041620;28;20053;-75
2021/04/06 05:59:15;;;;;;;12.05;2.88;;;-0.40;99.90;;;;;;5040448;28;20064;-78
2021/04/06 06:01:44;;;;;;;8.43;3.17;;;-0.30;99.90;;;;;;5042677;28;20040;-79
2021/04/06 06:04:17;;;;;;;10.80;3.65;;;-0.30;99.90;;;;;;5040067;28;20025;-77
2021/04/06 06:06:43;;;;;;;9.57;3.38;;;-0.20;99.90;;;;;;5040614;28;20009;-77
2021/04/06 06:09:11;;;;;;;10.55;3.90;;;-0.20;99.90;;;;;;5038441;28;20454;-77
2021/04/06 06:12:03;;;;;;;9.27;3.17;;;-0.20;99.90;;;;;;5039075;28;20025;-77
2021/04/06 06:14:37;;;;;;;6.47;3.55;;;0.00;99.90;;;;;;5036796;28;20269;-76
2021/04/06 06:17:19;;;;;;;7.47;3.45;;;0.20;99.90;;;;;;5039847;28;20059;-76
2021/04/06 06:19:47;;;;;;;8.90;2.88;;;0.30;99.90;;;;;;5042036;28;20014;-78
2021/04/06 06:22:25;;;;;;;9.98;3.72;;;0.30;99.90;;;;;;5038650;28;20111;-78
2021/04/06 06:25:05;;;;;;;12.00;3.55;;;0.30;99.90;;;;;;5038542;28;20028;-76
2021/04/06 06:27:42;;;;;;;9.60;3.42;;;0.30;99.90;;;;;;5034742;28;20127;-71
2021/04/06 06:33:16;;;;;;;14.25;3.95;;;0.20;99.90;;;;;;5032778;28;20033;-72
2021/04/06 06:35:44;;;;;;;8.75;2.80;;;0.90;99.90;;;;;;5030621;28;20079;-71
2021/04/06 06:38:38;;;;;;;10.23;3.58;;;2.00;99.90;;;;;;5030208;28;20083;-73
2021/04/06 06:41:15;;;;;;;6.40;2.80;;;2.70;99.90;;;;;;5042849;28;20044;-74
2021/04/06 06:43:43;;;;;;;11.85;3.13;;;3.20;99.90;;;;;;5050452;28;20025;-72
2021/04/06 06:46:30;;;;;;;11.63;2.75;;;2.80;99.90;;;;;;5051686;28;20029;-72
2021/04/06 06:49:03;;;;;;;10.15;3.20;;;1.70;99.90;;;;;;5067400;28;20438;-73
2021/04/06 06:51:34;;;;;;;10.85;2.78;;;1.30;99.90;;;;;;5050371;28;20027;-72
2021/04/06 06:54:00;;;;;;;9.80;3.15;;;0.80;99.90;;;;;;5049570;28;20035;-70
2021/04/06 06:56:38;;;;;;;6.65;2.40;;;0.80;99.90;;;;;;5049571;28;20028;-73
2021/04/06 06:59:04;;;;;;;5.70;2.70;;;0.50;99.90;;;;;;5049557;28;20025;-71
2021/04/06 07:01:32;;;;;;;7.82;3.05;;;0.40;99.90;;;;;;5049472;28;20021;-69
2021/04/06 07:04:08;;;;;;;10.43;2.92;;;0.30;99.90;;;;;;5048978;28;20017;-70
2021/04/06 07:06:36;;;;;;;6.18;2.40;;;0.80;99.90;;;;;;5049700;28;20033;-72
2021/04/06 07:09:20;;;;;;;9.02;3.03;;;0.80;99.90;;;;;;5050002;28;20029;-70
2021/04/06 07:11:46;;;;;;;8.52;3.35;;;0.80;99.90;;;;;;5048749;28;20036;-69
2021/04/06 07:14:13;;;;;;;5.25;2.33;;;0.90;99.90;;;;;;5048491;28;20021;-70
2021/04/06 07:16:39;;;;;;;10.43;3.10;;;0.90;99.90;;;;;;5048631;28;20025;-69
2021/04/06 07:19:06;;;;;;;6.30;2.85;;;0.80;99.90;;;;;;5061224;28;20093;-68
2021/04/06 07:21:33;;;;;;;5.90;3.08;;;1.10;99.90;;;;;;5068626;28;20528;-69
2021/04/06 07:24:04;;;;;;;11.25;2.92;;;1.00;99.90;;;;;;5068970;28;20025;-71
2021/04/06 07:26:31;;;;;;;9.32;2.70;;;0.90;99.90;;;;;;5068558;28;20051;-70
2021/04/06 07:28:58;;;;;;;15.82;3.15;;;0.90;99.90;;;;;;5068229;28;20482;-73
2021/04/06 07:31:24;;;;;;;5.60;2.83;;;0.80;99.90;;;;;;5067341;28;20427;-71
2021/04/06 07:33:52;;;;;;;14.70;3.92;;;1.10;99.90;;;;;;5067707;28;20036;-74
2021/04/06 07:36:21;;;;;;;9.60;2.90;;;1.00;99.90;;;;;;5068688;28;20033;-73
2021/04/06 07:38:53;;;;;;;5.70;2.70;;;0.80;99.90;;;;;;5068304;28;20025;-71
2021/04/06 07:41:22;;;;;;;8.35;3.17;;;1.20;99.90;;;;;;5048601;28;20484;-72
2021/04/06 07:43:56;;;;;;;12.07;2.97;;;1.00;99.90;;;;;;5047740;28;20036;-71
2021/04/06 07:46:34;;;;;;;5.32;2.40;;;1.10;99.90;;;;;;5063103;28;20025;-72
2021/04/06 07:49:06;;;;;;;9.57;2.67;;;1.10;99.90;;;;;;5047671;28;20071;-73
2021/04/06 07:51:40;;;;;;;10.68;2.55;;;1.30;99.90;;;;;;5047837;28;20052;-71
2021/04/06 07:54:09;;;;;;;10.85;3.17;;;1.20;99.90;;;;;;5047868;28;20029;-73
2021/04/06 07:56:44;;;;;;;5.28;2.58;;;1.00;99.90;;;;;;5049646;28;20150;-72
2021/04/06 07:59:18;;;;;;;5.72;2.30;;;1.30;99.90;;;;;;5048024;28;20033;-73
2021/04/06 08:01:50;;;;;;;6.35;2.20;;;1.40;99.90;;;;;;5047520;28;20025;-72
2021/04/06 08:04:17;;;;;;;9.95;3.00;;;1.70;99.90;;;;;;5050517;28;20116;-72
2021/04/06 08:06:53;;;;;;;12.85;3.58;;;2.00;99.90;;;;;;5051477;28;20052;-72
2021/04/06 08:12:16;;;;;;;5.50;2.95;;;2.00;99.90;;;;;;5092962;28;20413;-72
2021/04/06 08:14:50;;;;;;;13.43;3.05;;;2.30;99.90;;;;;;5092225;28;20032;-72
2021/04/06 08:17:27;;;;;;;8.25;2.05;;;1.80;99.90;;;;;;5091670;28;20455;-73
2021/04/06 08:20:18;;;;;;;8.65;2.13;;;1.80;99.90;;;;;;5093994;28;20390;-73
2021/04/06 08:22:43;;;;;;;10.55;2.95;;;1.60;99.90;;;;;;5094800;28;20024;-72
2021/04/06 08:25:15;;;;;;;8.02;3.53;;;1.60;99.90;;;;;;5096466;28;20454;-73
2021/04/06 08:27:48;;;;;;;8.35;3.00;;;1.70;99.90;;;;;;5097654;28;20077;-73
2021/04/06 08:30:19;;;;;;;6.30;2.95;;;1.70;99.90;;;;;;5098654;28;20540;-72
2021/04/06 08:33:25;;;;;;;11.02;2.53;;;1.90;99.90;;;;;;5096556;28;20442;-72
2021/04/06 08:35:53;;;;;;;10.68;3.15;;;2.00;99.90;;;;;;5095685;28;20052;-72
2021/04/06 08:40:50;;;;;;;6.18;2.17;;;2.10;99.90;;;;;;5098412;28;20032;-72
2021/04/06 08:43:20;;;;;;;9.57;2.85;;;2.20;99.90;;;;;;5096229;28;20032;-72
2021/04/06 08:46:13;;;;;;;12.80;2.42;;;2.20;99.90;;;;;;5094113;28;20082;-72
2021/04/06 08:48:45;;;;;;;7.15;2.45;;;2.40;99.90;;;;;;5094965;28;20025;-71
2021/04/06 08:51:44;;;;;;;8.48;2.90;;;2.60;99.90;;;;;;5094137;28;20031;-72
2021/04/06 08:54:20;;;;;;;9.38;2.35;;;2.60;99.90;;;;;;5094284;28;20029;-73
2021/04/06 08:56:49;;;;;;;8.75;2.42;;;2.20;99.90;;;;;;5089912;28;20039;-73
2021/04/06 08:59:20;;;;;;;10.70;3.05;;;2.30;99.90;;;;;;5088767;28;20020;-74
2021/04/06 09:02:08;;;;;;;8.88;2.45;;;2.70;99.90;;;;;;5092420;28;20024;-74
2021/04/06 09:04:48;;;;;;;4.30;2.03;;;2.70;99.90;;;;;;5091349;28;20165;-72
2021/04/06 09:07:17;;;;;;;7.85;2.65;;;2.90;99.90;;;;;;5085824;28;20066;-72
2021/04/06 09:09:43;;;;;;;20.25;2.85;;;3.10;99.90;;;;;;5085854;28;20028;-71
2021/04/06 09:12:09;;;;;;;8.48;2.63;;;3.30;99.90;;;;;;5085842;28;20077;-70
2021/04/06 09:14:36;;;;;;;7.93;2.35;;;3.20;99.90;;;;;;5085484;28;20024;-72
2021/04/06 09:17:03;;;;;;;10.82;5.97;;;3.80;99.90;;;;;;5086474;28;20074;-73
2021/04/06 09:19:29;;;;;;;8.55;2.60;;;3.60;99.90;;;;;;5085822;28;20030;-72
2021/04/06 09:21:56;;;;;;;7.28;2.40;;;3.80;99.90;;;;;;5082032;28;20032;-71
2021/04/06 09:24:24;;;;;;;8.88;2.63;;;3.40;99.90;;;;;;5071905;28;20109;-72
2021/04/06 09:26:53;;;;;;;7.90;2.58;;;3.50;99.90;;;;;;5071503;28;20032;-73
2021/04/06 09:29:20;;;;;;;8.82;4.70;;;3.20;99.90;;;;;;5074273;28;20029;-72
2021/04/06 09:31:52;;;;;;;10.25;3.15;;;3.00;99.90;;;;;;5073889;28;20031;-72
2021/04/06 09:34:21;;;;;;;5.10;2.47;;;3.10;99.90;;;;;;5072760;28;20066;-74
2021/04/06 09:37:04;;;;;;;6.30;2.35;;;3.10;99.90;;;;;;5072810;28;20028;-72
2021/04/06 09:39:30;;;;;;;6.97;2.22;;;3.10;99.90;;;;;;5071284;28;20029;-71
2021/04/06 09:41:57;;;;;;;6.47;2.20;;;3.10;99.90;;;;;;5063483;28;20024;-71
2021/04/06 09:44:32;;;;;;;9.40;2.42;;;3.00;99.90;;;;;;5061943;28;20016;-72
2021/04/06 09:47:03;;;;;;;9.80;3.00;;;3.00;99.90;;;;;;5061219;28;20029;-71
2021/04/06 09:49:34;;;;;;;9.70;4.00;;;3.10;99.90;;;;;;5055422;28;20037;-72
2021/04/06 09:52:04;;;;;;;13.77;4.40;;;3.20;99.90;;;;;;5057313;28;20052;-74
2021/04/06 09:54:35;;;;;;;14.13;7.65;;;3.30;99.90;;;;;;5059457;28;20050;-72
2021/04/06 09:57:09;;;;;;;11.50;2.78;;;3.10;99.90;;;;;;5062818;28;20025;-73
2021/04/06 09:59:36;;;;;;;9.50;2.65;;;3.00;99.90;;;;;;5061824;28;20156;-71
2021/04/06 10:02:03;;;;;;;18.73;11.45;;;3.10;99.90;;;;;;5056206;28;20036;-72
2021/04/06 10:04:37;;;;;;;12.75;5.85;;;3.40;99.90;;;;;;5058484;28;20087;-72
2021/04/06 10:07:15;;;;;;;23.58;13.57;;;3.60;99.90;;;;;;5055424;28;20028;-72
2021/04/06 10:09:49;;;;;;;15.23;9.27;;;4.20;99.90;;;;;;5051213;28;20025;-70
2021/04/06 10:12:17;;;;;;;11.25;5.75;;;4.40;99.90;;;;;;5051289;28;20031;-71
2021/04/06 10:14:44;;;;;;;15.52;7.40;;;4.40;99.90;;;;;;5050453;28;20024;-72
2021/04/06 10:17:15;;;;;;;10.98;4.30;;;4.50;99.90;;;;;;5051660;28;20029;-71
2021/04/06 10:20:05;;;;;;;5.13;2.20;;;4.40;99.90;;;;;;5068250;28;20025;-71
2021/04/06 10:22:53;;;;;;;14.98;6.47;;;4.40;99.90;;;;;;5071119;28;20398;-69
2021/04/06 10:25:25;;;;;;;11.15;5.55;;;4.90;99.90;;;;;;5071225;28;20104;-71
2021/04/06 10:27:54;;;;;;;5.80;3.17;;;4.30;99.90;;;;;;5070925;28;20051;-71
2021/04/06 10:30:39;;;;;;;12.30;3.88;;;4.30;99.90;;;;;;5070824;28;20025;-70
2021/04/06 10:33:14;;;;;;;17.50;7.68;;;3.80;99.90;;;;;;5069609;28;20541;-70
2021/04/06 10:35:50;;;;;;;7.22;3.25;;;3.90;99.90;;;;;;5069988;28;20394;-72
2021/04/06 10:38:25;;;;;;;11.55;4.63;;;4.30;99.90;;;;;;5070882;28;20028;-70
2021/04/06 10:41:04;;;;;;;15.55;4.70;;;4.60;99.90;;;;;;5055402;28;20021;-72
2021/04/06 10:43:31;;;;;;;8.25;2.60;;;4.70;99.90;;;;;;5049759;28;20025;-70
2021/04/06 10:46:09;;;;;;;5.63;3.00;;;5.40;99.90;;;;;;5049342;28;20037;-70
2021/04/06 10:48:38;;;;;;;6.75;1.95;;;7.00;99.90;;;;;;5050955;28;20028;-73
2021/04/06 10:51:11;;;;;;;4.07;1.70;;;8.70;99.90;;;;;;5050395;28;20021;-71
2021/04/06 10:53:50;;;;;;;3.55;1.83;;;9.30;99.90;;;;;;5049947;28;20029;-72
2021/04/06 10:56:20;;;;;;;3.90;1.60;;;9.10;99.90;;;;;;5050777;28;20104;-71
2021/04/06 10:58:59;;;;;;;3.90;1.48;;;8.50;99.90;;;;;;5050681;28;20029;-70
2021/04/06 11:01:24;;;;;;;8.10;2.10;;;6.30;99.90;;;;;;5050715;28;20478;-73
2021/04/06 11:03:54;;;;;;;5.93;2.20;;;5.00;99.90;;;;;;5049626;28;20104;-72
2021/04/06 11:06:33;;;;;;;6.10;1.88;;;5.00;99.90;;;;;;5050967;28;20140;-71
2021/04/06 11:09:01;;;;;;;7.00;1.80;;;5.80;99.90;;;;;;5050664;28;20036;-72
2021/04/06 11:11:31;;;;;;;8.73;1.73;;;5.20;99.90;;;;;;5050010;28;20025;-75
2021/04/06 11:14:03;;;;;;;2.97;1.80;;;6.80;99.90;;;;;;5049828;28;20430;-75
2021/04/06 11:16:28;;;;;;;3.50;1.90;;;7.70;99.90;;;;;;5050370;28;20033;-74
2021/04/06 11:19:14;;;;;;;5.38;1.70;;;6.70;99.90;;;;;;5050734;28;20033;-74
2021/04/06 11:21:49;;;;;;;5.30;2.28;;;6.30;99.90;;;;;;5050559;28;20033;-70
2021/04/06 11:24:17;;;;;;;6.63;2.10;;;5.50;99.90;;;;;;5049932;28;20028;-72
2021/04/06 11:26:43;;;;;;;10.90;2.60;;;5.20;99.90;;;;;;5054196;28;20043;-76
2021/04/06 11:29:12;;;;;;;5.15;2.22;;;5.30;99.90;;;;;;5064401;28;20401;-76
2021/04/06 11:31:40;;;;;;;5.18;2.20;;;5.30;99.90;;;;;;5066049;28;20046;-76
2021/04/06 11:34:08;;;;;;;4.60;2.05;;;4.70;99.90;;;;;;5062197;28;20025;-74
2021/04/06 11:36:35;;;;;;;8.63;1.95;;;4.80;99.90;;;;;;5064250;28;20566;-75
2021/04/06 11:39:04;;;;;;;6.95;2.03;;;4.50;99.90;;;;;;5061729;28;20028;-78
2021/04/06 11:41:29;;;;;;;9.27;1.90;;;4.70;99.90;;;;;;5062455;28;20021;-79
2021/04/06 11:43:55;;;;;;;6.13;2.03;;;5.10;99.90;;;;;;5057864;28;20518;-76
2021/04/06 11:46:21;;;;;;;7.93;1.80;;;5.90;99.90;;;;;;5062369;28;20035;-78
2021/04/06 11:48:47;;;;;;;2.83;1.55;;;6.60;99.90;;;;;;5058290;28;20040;-79
2021/04/06 11:51:14;;;;;;;5.10;1.48;;;8.10;99.90;;;;;;5056913;28;20032;-78
2021/04/06 11:53:40;;;;;;;3.72;1.60;;;9.60;99.90;;;;;;5057671;28;20020;-80
2021/04/06 11:56:06;;;;;;;4.93;1.65;;;10.80;96.20;;;;;;5056599;28;20029;-77
2021/04/06 11:58:32;;;;;;;6.50;2.30;;;11.00;93.30;;;;;;5067185;28;20044;-77
2021/04/06 12:00:58;;;;;;;4.30;1.67;;;10.30;93.30;;;;;;5068137;28;20052;-77
2021/04/06 12:03:25;;;;;;;3.42;1.30;;;10.60;92.80;;;;;;5063429;28;20395;-78
2021/04/06 12:05:50;;;;;;;6.13;1.55;;;9.90;92.30;;;;;;5063109;28;20028;-75
2021/04/06 12:08:16;;;;;;;6.60;1.90;;;9.20;90.90;;;;;;5065769;28;20483;-75
2021/04/06 12:10:44;;;;;;;4.00;1.60;;;10.00;93.90;;;;;;5067171;28;20029;-77
2021/04/06 12:13:11;;;;;;;4.78;1.55;;;9.10;94.10;;;;;;5067722;28;20010;-77
2021/04/06 12:15:37;;;;;;;5.68;1.67;;;9.60;93.10;;;;;;5057836;28;20021;-78
2021/04/06 12:18:03;;;;;;;2.63;1.15;;;10.00;93.00;;;;;;5053153;28;20025;-80
2021/04/06 12:20:29;;;;;;;5.18;1.50;;;11.10;89.40;;;;;;5066657;28;20493;-78
2021/04/06 12:22:55;;;;;;;5.03;1.63;;;10.40;81.40;;;;;;5066157;28;20016;-79
2021/04/06 12:25:21;;;;;;;4.22;1.63;;;10.20;84.50;;;;;;5076380;28;20037;-79
2021/04/06 12:27:47;;;;;;;3.08;1.20;;;10.30;84.70;;;;;;5062336;28;20103;-77
2021/04/06 12:30:13;;;;;;;3.78;1.40;;;9.00;82.60;;;;;;5054136;28;20025;-77
2021/04/06 12:32:42;;;;;;;3.47;1.30;;;7.90;89.30;;;;;;5059221;28;20032;-79
2021/04/06 12:35:09;;;;;;;5.15;1.40;;;7.80;88.90;;;;;;5060407;28;20028;-79
2021/04/06 12:37:35;;;;;;;3.30;1.50;;;7.80;88.90;;;;;;5057963;28;20573;-78
2021/04/06 12:40:02;;;;;;;4.65;1.20;;;7.10;86.20;;;;;;5076357;28;20025;-75
2021/04/06 12:42:28;;;;;;;5.50;1.45;;;8.40;86.00;;;;;;5075119;28;20040;-76
2021/04/06 12:44:54;;;;;;;3.03;1.70;;;8.10;81.60;;;;;;5073035;28;20013;-76
2021/04/06 12:47:20;;;;;;;3.10;1.27;;;7.70;86.80;;;;;;5073447;28;20013;-77
2021/04/06 12:49:46;;;;;;;4.90;1.60;;;7.60;84.10;;;;;;5067640;28;20029;-75
2021/04/06 12:52:12;;;;;;;4.57;1.30;;;7.50;86.10;;;;;;5053277;28;20036;-76
2021/04/06 12:54:38;;;;;;;4.72;1.75;;;8.40;85.80;;;;;;5061366;28;20012;-76
2021/04/06 12:57:04;;;;;;;3.75;1.00;;;9.30;81.80;;;;;;5058595;28;20037;-74
2021/04/06 12:59:30;;;;;;;1.90;1.00;;;9.90;76.40;;;;;;5053536;28;20033;-74
2021/04/06 13:01:55;;;;;;;1.00;0.65;;;10.30;76.90;;;;;;5054135;28;20033;-75
2021/04/06 13:04:21;;;;;;;2.75;1.15;;;10.10;70.00;;;;;;5053215;28;20031;-73
2021/04/06 13:06:47;;;;;;;3.53;1.05;;;9.70;73.80;;;;;;5053415;28;20021;-76
2021/04/06 13:09:12;;;;;;;3.95;1.10;;;10.50;74.00;;;;;;5052025;28;20116;-72